Time;durP1;ratioP1;P1;durP2;ratioP2;P2;SDS_P1;SDS_P2;PMS_P1;PMS_P2;Temp;Humidity;BMP_temperature;BMP_pressure;BME280_temperature;BME280_humidity;BME280_pressure;Samples;Min_cycle;Max_cycle;Signal;HPM_P1;HPM_P2
2022/10/11 00:02:02;;;;;;;1.17;0.68;;;;;;;9.57;100.00;100395.09;6365284;22;20006;-77
2022/10/11 00:04:28;;;;;;;1.63;0.77;;;;;;;9.62;100.00;100394.63;6311496;22;20436;-78
2022/10/11 00:06:53;;;;;;;2.10;0.90;;;;;;;9.64;100.00;100378.34;6365272;22;20340;-78
2022/10/11 00:09:19;;;;;;;1.73;1.02;;;;;;;9.57;100.00;100386.78;6364934;22;20093;-78
2022/10/11 00:11:45;;;;;;;1.05;0.95;;;;;;;9.50;100.00;100386.91;6365977;22;20077;-78
2022/10/11 00:14:10;;;;;;;0.77;0.77;;;;;;;9.51;100.00;100391.22;6336805;22;20007;-86
2022/10/11 00:16:39;;;;;;;1.48;1.23;;;;;;;9.51;100.00;100388.47;6362581;22;20018;-86
2022/10/11 00:19:05;;;;;;;1.33;1.08;;;;;;;9.56;100.00;100386.00;6339599;22;20013;-86
2022/10/11 00:21:30;;;;;;;0.35;0.35;;;;;;;9.61;100.00;100393.84;6364606;22;20014;-86
2022/10/11 00:23:56;;;;;;;2.15;0.85;;;;;;;9.65;100.00;100399.31;6366172;22;20010;-86
2022/10/11 00:26:21;;;;;;;1.15;0.85;;;;;;;9.75;100.00;100398.34;6365410;22;20433;-86
2022/10/11 00:28:46;;;;;;;0.52;0.52;;;;;;;9.86;100.00;100382.31;6366259;22;20399;-86
2022/10/11 00:31:14;;;;;;;0.80;0.80;;;;;;;9.89;100.00;100387.00;6339064;22;20017;-86
2022/10/11 00:33:40;;;;;;;1.48;1.38;;;;;;;9.88;100.00;100384.66;6365006;22;20007;-78
2022/10/11 00:36:06;;;;;;;5.20;1.15;;;;;;;9.84;100.00;100368.88;6337042;22;20017;-77
2022/10/11 00:38:32;;;;;;;0.93;0.90;;;;;;;9.72;100.00;100388.09;6336438;22;20025;-78
2022/10/11 00:40:58;;;;;;;0.52;0.50;;;;;;;9.53;100.00;100386.06;6337042;22;20344;-78
2022/10/11 00:43:26;;;;;;;1.23;1.15;;;;;;;9.39;100.00;100387.06;6366465;22;20010;-78
2022/10/11 00:45:54;;;;;;;8.27;2.28;;;;;;;9.34;100.00;100388.34;6364541;22;20010;-78
2022/10/11 00:48:34;;;;;;;0.43;0.43;;;;;;;9.22;100.00;100385.41;6364369;22;20090;-78
2022/10/11 00:51:02;;;;;;;1.00;1.00;;;;;;;9.19;100.00;100389.78;6338239;22;20044;-78
2022/10/11 00:53:29;;;;;;;0.52;0.52;;;;;;;9.11;100.00;100393.84;6339431;22;20018;-86
2022/10/11 00:56:25;;;;;;;0.17;0.17;;;;;;;9.08;100.00;100389.16;6313044;22;20014;-86
2022/10/11 00:58:51;;;;;;;0.75;0.75;;;;;;;9.03;100.00;100392.38;6365757;22;20010;-86
2022/10/11 01:03:43;;;;;;;1.40;1.27;;;;;;;9.06;100.00;100391.53;6328823;22;20025;-83
2022/10/11 01:06:09;;;;;;;3.00;1.38;;;;;;;8.99;100.00;100382.56;6366563;22;20010;-83
2022/10/11 01:08:34;;;;;;;1.13;1.13;;;;;;;9.00;100.00;100398.75;6339874;22;20125;-83
2022/10/11 01:11:00;;;;;;;1.42;0.98;;;;;;;8.98;100.00;100390.06;6338695;22;20038;-83
2022/10/11 01:13:36;;;;;;;1.10;1.05;;;;;;;9.02;100.00;100384.53;6365271;22;19994;-83
2022/10/11 01:16:42;;;;;;;0.88;0.88;;;;;;;9.07;100.00;100381.25;6367433;22;20085;-83
2022/10/11 01:19:19;;;;;;;0.15;0.15;;;;;;;9.02;100.00;100385.28;6368277;22;20030;-83
2022/10/11 01:22:08;;;;;;;0.55;0.55;;;;;;;9.00;100.00;100386.91;6368496;22;20010;-83
2022/10/11 01:24:43;;;;;;;1.50;1.40;;;;;;;9.06;100.00;100379.72;6295883;22;20023;-83
2022/10/11 01:27:36;;;;;;;0.98;0.93;;;;;;;9.11;100.00;100377.25;6367290;22;20366;-83
2022/10/11 01:30:21;;;;;;;0.88;0.82;;;;;;;9.24;100.00;100375.47;6368502;22;20010;-83
2022/10/11 01:32:49;;;;;;;1.63;1.17;;;;;;;9.30;100.00;100371.00;6340495;22;20006;-83
2022/10/11 01:35:28;;;;;;;2.72;1.60;;;;;;;9.26;100.00;100375.81;6369152;22;20011;-83
2022/10/11 01:38:07;;;;;;;0.65;0.65;;;;;;;9.22;100.00;100372.31;6368106;22;20024;-83
2022/10/11 01:40:37;;;;;;;1.55;1.33;;;;;;;9.21;100.00;100376.31;6341049;22;20167;-83
2022/10/11 01:43:03;;;;;;;7.28;3.03;;;;;;;9.15;100.00;100375.19;6367146;22;20018;-83
2022/10/11 01:45:29;;;;;;;0.35;0.35;;;;;;;9.06;100.00;100361.09;6368198;22;20575;-83
2022/10/11 01:48:07;;;;;;;1.45;1.35;;;;;;;8.92;100.00;100385.44;6338790;22;20047;-83
2022/10/11 01:50:47;;;;;;;1.15;1.05;;;;;;;8.85;100.00;100381.59;6367014;22;20037;-83
2022/10/11 01:53:43;;;;;;;1.02;1.00;;;;;;;8.79;100.00;100382.47;6366986;22;20095;-83
2022/10/11 01:56:25;;;;;;;0.88;0.82;;;;;;;8.84;100.00;100379.22;6366283;22;20044;-83
2022/10/11 01:59:19;;;;;;;0.20;0.20;;;;;;;8.88;100.00;100379.97;6365533;22;20020;-83
2022/10/11 02:02:14;;;;;;;3.30;1.85;;;;;;;8.77;100.00;100358.00;6365441;22;20098;-83
2022/10/11 02:04:46;;;;;;;0.95;0.95;;;;;;;8.79;100.00;100365.88;6338507;22;20018;-83
2022/10/11 02:07:36;;;;;;;1.23;1.20;;;;;;;8.71;100.00;100364.41;6338700;22;20013;-83
2022/10/11 02:10:18;;;;;;;0.70;0.70;;;;;;;8.74;100.00;100366.31;6365937;22;20639;-83
2022/10/11 02:12:48;;;;;;;0.52;0.52;;;;;;;8.81;100.00;100366.25;6338132;22;20019;-83
2022/10/11 02:15:15;;;;;;;0.22;0.22;;;;;;;8.82;100.00;100365.03;6367043;22;20011;-83
2022/10/11 02:17:44;;;;;;;0.80;0.80;;;;;;;8.73;100.00;100373.84;6340006;22;20010;-83
2022/10/11 02:20:13;;;;;;;0.85;0.85;;;;;;;8.70;100.00;100374.66;6368446;22;20006;-83
2022/10/11 02:22:42;;;;;;;0.95;0.95;;;;;;;8.74;100.00;100374.63;6340539;22;20017;-83
2022/10/11 02:25:10;;;;;;;0.77;0.70;;;;;;;8.74;100.00;100364.34;6339816;22;20017;-83
2022/10/11 02:27:38;;;;;;;1.42;1.33;;;;;;;8.78;100.00;100364.28;6288803;22;20453;-83
2022/10/11 02:30:06;;;;;;;1.73;0.93;;;;;;;8.74;100.00;100371.84;6367735;22;20472;-83
2022/10/11 02:32:32;;;;;;;0.77;0.77;;;;;;;8.75;100.00;100381.72;6340489;22;19999;-83
2022/10/11 02:34:59;;;;;;;0.85;0.85;;;;;;;8.87;100.00;100378.38;6339765;22;20478;-83
2022/10/11 02:37:28;;;;;;;2.47;1.38;;;;;;;8.97;100.00;100371.16;6339745;22;20058;-83
2022/10/11 02:40:30;;;;;;;2.28;2.13;;;;;;;8.97;100.00;100374.69;6367278;22;20003;-83
2022/10/11 02:42:58;;;;;;;1.88;0.82;;;;;;;8.89;100.00;100389.84;6271320;22;20518;-83
2022/10/11 02:45:44;;;;;;;1.50;1.40;;;;;;;8.63;100.00;100374.00;6271010;22;20023;-83
2022/10/11 02:48:10;;;;;;;2.83;1.05;;;;;;;8.56;100.00;100372.09;6244775;22;20038;-83
2022/10/11 02:50:37;;;;;;;0.75;0.65;;;;;;;8.42;100.00;100381.34;6270405;22;20015;-83
2022/10/11 02:53:03;;;;;;;2.70;2.30;;;;;;;8.23;100.00;100373.69;6242894;22;20095;-83
2022/10/11 02:55:29;;;;;;;1.90;0.90;;;;;;;8.27;100.00;100371.66;6241158;22;20043;-83
2022/10/11 02:57:55;;;;;;;0.90;0.90;;;;;;;8.34;100.00;100382.66;6244086;22;20411;-83
2022/10/11 03:00:20;;;;;;;0.75;0.75;;;;;;;8.33;100.00;100383.06;6268641;22;20022;-83
2022/10/11 03:02:46;;;;;;;0.93;0.43;;;;;;;8.30;100.00;100390.19;6268390;22;20015;-83
2022/10/11 03:05:13;;;;;;;1.40;1.27;;;;;;;8.26;100.00;100380.34;6268412;22;20015;-83
2022/10/11 03:07:39;;;;;;;2.25;2.08;;;;;;;8.36;100.00;100387.78;6268647;22;20186;-84
2022/10/11 03:10:05;;;;;;;1.55;1.15;;;;;;;8.38;100.00;100397.22;6267997;22;20399;-83
2022/10/11 03:12:31;;;;;;;1.17;0.85;;;;;;;8.40;100.00;100394.03;6268358;22;20448;-83
2022/10/11 03:14:56;;;;;;;0.40;0.40;;;;;;;8.43;100.00;100394.00;6362679;22;20018;-84
2022/10/11 03:17:22;;;;;;;1.27;0.98;;;;;;;8.45;100.00;100393.59;6366653;22;20006;-83
2022/10/11 03:19:48;;;;;;;0.80;0.77;;;;;;;8.45;100.00;100385.28;6367695;22;20010;-84
2022/10/11 03:22:13;;;;;;;0.30;0.30;;;;;;;8.43;100.00;100387.69;6366850;22;20043;-84
2022/10/11 03:24:39;;;;;;;1.15;0.70;;;;;;;8.40;100.00;100382.97;6367909;22;20048;-84
2022/10/11 03:27:04;;;;;;;0.52;0.52;;;;;;;8.42;100.00;100392.41;6365719;22;20017;-83
2022/10/11 03:29:30;;;;;;;1.83;1.70;;;;;;;8.41;100.00;100388.09;6367364;22;20093;-83
2022/10/11 03:31:56;;;;;;;0.70;0.70;;;;;;;8.47;100.00;100398.69;6365260;22;20014;-83
2022/10/11 03:34:21;;;;;;;0.65;0.65;;;;;;;8.46;100.00;100391.59;6365628;22;20009;-83
2022/10/11 03:36:47;;;;;;;0.90;0.63;;;;;;;8.53;100.00;100402.56;6364944;22;20006;-83
2022/10/11 03:39:12;;;;;;;1.45;0.57;;;;;;;8.62;100.00;100408.38;6367327;22;20346;-83
2022/10/11 03:41:38;;;;;;;2.15;1.50;;;;;;;8.59;100.00;100406.44;6366306;22;20071;-84
2022/10/11 03:44:03;;;;;;;0.50;0.50;;;;;;;8.62;100.00;100406.38;6366875;22;20018;-83
2022/10/11 03:46:29;;;;;;;0.80;0.80;;;;;;;8.62;100.00;100405.59;6367101;22;20474;-83
2022/10/11 03:48:54;;;;;;;1.10;0.57;;;;;;;8.64;100.00;100404.00;6367057;22;20502;-82
2022/10/11 03:51:20;;;;;;;3.78;1.25;;;;;;;8.61;100.00;100395.75;6366768;22;20045;-83
2022/10/11 03:53:45;;;;;;;2.28;1.55;;;;;;;8.51;100.00;100416.00;6366796;22;20033;-83
2022/10/11 03:56:11;;;;;;;0.52;0.52;;;;;;;8.54;100.00;100415.19;6366728;22;20006;-83
2022/10/11 03:58:36;;;;;;;1.70;1.60;;;;;;;8.45;100.00;100417.69;6367256;22;20068;-84
2022/10/11 04:01:02;;;;;;;0.98;0.88;;;;;;;8.35;100.00;100422.91;6366948;22;20014;-83
2022/10/11 04:03:28;;;;;;;1.17;1.08;;;;;;;8.28;100.00;100411.91;6366058;22;20022;-83
2022/10/11 04:05:53;;;;;;;0.98;0.98;;;;;;;8.32;100.00;100409.13;6366522;22;20063;-84
2022/10/11 04:08:19;;;;;;;1.38;0.63;;;;;;;8.37;100.00;100412.22;6367216;22;20429;-84
2022/10/11 04:10:44;;;;;;;2.08;1.00;;;;;;;8.45;100.00;100417.69;6366898;22;20507;-84
2022/10/11 04:13:10;;;;;;;1.67;0.57;;;;;;;8.50;100.00;100419.97;6364972;22;20333;-84
2022/10/11 04:15:40;;;;;;;1.95;1.67;;;;;;;8.54;100.00;100426.25;6365409;22;20006;-85
2022/10/11 04:18:06;;;;;;;0.73;0.68;;;;;;;8.53;100.00;100425.47;6366202;22;19998;-84
2022/10/11 04:20:31;;;;;;;1.15;1.13;;;;;;;8.52;100.00;100417.59;6338507;22;20063;-85
2022/10/11 04:22:57;;;;;;;0.43;0.43;;;;;;;8.46;100.00;100411.72;6364264;22;20080;-83
2022/10/11 04:25:22;;;;;;;0.30;0.30;;;;;;;8.62;100.00;100422.19;6337201;22;20010;-82
2022/10/11 04:27:48;;;;;;;0.45;0.43;;;;;;;8.66;100.00;100420.16;6363633;22;20011;-82
2022/10/11 04:30:14;;;;;;;0.47;0.45;;;;;;;8.61;100.00;100420.66;6367017;22;20020;-82
2022/10/11 04:32:39;;;;;;;1.25;1.00;;;;;;;8.59;100.00;100414.72;6365734;22;20010;-85
2022/10/11 04:35:05;;;;;;;1.33;1.23;;;;;;;8.61;100.00;100417.88;6367352;22;20434;-85
2022/10/11 04:37:30;;;;;;;1.35;1.13;;;;;;;8.68;100.00;100423.31;6367284;22;20037;-85
2022/10/11 04:40:06;;;;;;;0.65;0.65;;;;;;;8.74;100.00;100424.41;6368547;22;20010;-85
2022/10/11 04:42:32;;;;;;;0.88;0.88;;;;;;;8.74;100.00;100416.09;6365962;22;20431;-85
2022/10/11 04:44:57;;;;;;;1.33;1.25;;;;;;;8.74;100.00;100418.88;6367853;22;20006;-84
2022/10/11 04:47:23;;;;;;;2.70;2.40;;;;;;;8.67;100.00;100413.44;6366758;22;20002;-83
2022/10/11 04:49:48;;;;;;;1.27;1.17;;;;;;;8.66;100.00;100417.41;6367541;22;20011;-84
2022/10/11 04:52:14;;;;;;;0.32;0.32;;;;;;;8.55;100.00;100416.75;6339894;22;20030;-83
2022/10/11 04:54:39;;;;;;;1.10;0.30;;;;;;;8.45;100.00;100431.50;6366226;22;20088;-83
2022/10/11 04:57:04;;;;;;;1.38;1.27;;;;;;;8.37;100.00;100428.81;6340495;22;20086;-83
2022/10/11 04:59:39;;;;;;;0.15;0.15;;;;;;;8.19;100.00;100421.88;6367810;22;20346;-83
2022/10/11 05:02:05;;;;;;;1.70;0.77;;;;;;;8.12;100.00;100427.50;6366651;22;20018;-85
2022/10/11 05:04:30;;;;;;;0.70;0.50;;;;;;;8.12;100.00;100433.81;6339707;22;20332;-85
2022/10/11 05:06:56;;;;;;;0.93;0.65;;;;;;;8.13;100.00;100432.59;6368100;22;20030;-84
2022/10/11 05:09:22;;;;;;;0.15;0.15;;;;;;;8.14;100.00;100436.94;6368726;22;20006;-84
2022/10/11 05:11:47;;;;;;;1.55;1.23;;;;;;;8.19;100.00;100452.28;6368876;22;20014;-84
2022/10/11 05:14:13;;;;;;;1.33;1.23;;;;;;;8.23;100.00;100456.59;6367245;22;20401;-82
2022/10/11 05:16:38;;;;;;;4.90;1.75;;;;;;;8.27;100.00;100459.31;6366871;22;20338;-84
2022/10/11 05:19:04;;;;;;;1.48;0.85;;;;;;;8.29;100.00;100462.47;6362806;22;20025;-83
2022/10/11 05:21:30;;;;;;;1.08;0.85;;;;;;;8.29;100.00;100466.00;6334998;22;20014;-83
2022/10/11 05:23:56;;;;;;;6.13;2.35;;;;;;;8.25;100.00;100458.94;6361045;22;20006;-84
2022/10/11 05:26:23;;;;;;;1.75;1.65;;;;;;;8.15;100.00;100454.28;6363661;22;20037;-83
2022/10/11 05:28:48;;;;;;;0.70;0.68;;;;;;;8.22;100.00;100462.50;6363978;22;20050;-85
2022/10/11 05:31:14;;;;;;;1.65;1.52;;;;;;;8.16;100.00;100455.88;6335726;22;20010;-84
2022/10/11 05:33:40;;;;;;;1.52;1.17;;;;;;;8.19;100.00;100455.84;6333198;22;20465;-84
2022/10/11 05:36:06;;;;;;;3.20;0.82;;;;;;;8.25;100.00;100465.22;6363428;22;20102;-83
2022/10/11 05:38:32;;;;;;;1.63;1.52;;;;;;;8.26;100.00;100466.81;6336705;22;20006;-83
2022/10/11 05:40:59;;;;;;;0.85;0.85;;;;;;;8.24;100.00;100468.44;6365908;22;20374;-84
2022/10/11 05:43:25;;;;;;;0.45;0.40;;;;;;;8.26;100.00;100461.28;6310489;22;20006;-83
2022/10/11 05:45:50;;;;;;;1.15;0.68;;;;;;;8.23;100.00;100472.38;6363699;22;20329;-83
2022/10/11 05:48:16;;;;;;;0.40;0.40;;;;;;;8.34;100.00;100478.59;6337319;22;20014;-83
2022/10/11 05:50:41;;;;;;;0.50;0.50;;;;;;;8.31;100.00;100480.22;6366378;22;20034;-84
2022/10/11 05:53:07;;;;;;;1.45;0.98;;;;;;;8.30;100.00;100477.84;6367495;22;20006;-83
2022/10/11 05:55:40;;;;;;;0.90;0.90;;;;;;;8.33;100.00;100482.56;6339126;22;20163;-85
2022/10/11 05:58:07;;;;;;;1.55;1.45;;;;;;;8.46;100.00;100480.03;6365041;22;20418;-84
2022/10/11 06:00:36;;;;;;;1.38;1.27;;;;;;;8.50;100.00;100486.31;6365005;22;20006;-85
2022/10/11 06:03:02;;;;;;;0.98;0.98;;;;;;;8.58;100.00;100474.78;6337139;22;20010;-86
2022/10/11 06:05:28;;;;;;;1.48;1.38;;;;;;;8.69;100.00;100482.97;6336356;22;20011;-84
2022/10/11 06:07:53;;;;;;;1.25;1.17;;;;;;;8.83;100.00;100493.84;6361352;22;20743;-82
2022/10/11 06:10:19;;;;;;;0.47;0.47;;;;;;;8.91;100.00;100506.38;6363548;22;20002;-84
2022/10/11 06:12:45;;;;;;;1.73;1.42;;;;;;;8.95;100.00;100496.06;6361709;22;20002;-84
2022/10/11 06:15:10;;;;;;;0.60;0.60;;;;;;;9.22;100.00;100510.72;6328176;22;20025;-81
2022/10/11 06:17:36;;;;;;;1.25;0.98;;;;;;;9.41;100.00;100514.03;6331453;22;20075;-81
2022/10/11 06:20:03;;;;;;;2.70;1.58;;;;;;;9.53;100.00;100507.91;6334230;22;20011;-81
2022/10/11 06:22:28;;;;;;;0.20;0.15;;;;;;;9.67;100.00;100504.91;6307878;22;20060;-82
2022/10/11 06:24:54;;;;;;;0.75;0.50;;;;;;;9.95;100.00;100500.94;6308209;22;20012;-82
2022/10/11 06:27:19;;;;;;;1.30;1.20;;;;;;;10.15;100.00;100505.31;6334892;22;20488;-82
2022/10/11 06:29:45;;;;;;;1.08;1.02;;;;;;;10.38;100.00;100512.06;6335409;22;20003;-82
2022/10/11 06:32:12;;;;;;;1.00;0.98;;;;;;;10.41;100.00;100505.66;6335028;22;20014;-82
2022/10/11 06:34:37;;;;;;;1.92;1.77;;;;;;;10.54;100.00;100509.41;6335661;22;20014;-82
2022/10/11 06:37:03;;;;;;;0.95;0.93;;;;;;;10.62;100.00;100519.16;6336320;22;20324;-82
2022/10/11 06:39:29;;;;;;;1.67;1.58;;;;;;;10.70;100.00;100507.50;6334183;22;20014;-82
2022/10/11 06:41:54;;;;;;;2.33;2.13;;;;;;;10.78;100.00;100513.69;6309021;22;20021;-82
2022/10/11 06:44:20;;;;;;;1.20;0.77;;;;;;;10.90;100.00;100513.03;6335314;22;20014;-82
2022/10/11 06:46:45;;;;;;;0.88;0.88;;;;;;;11.04;100.00;100517.53;6309033;22;20025;-82
2022/10/11 06:49:11;;;;;;;1.55;1.45;;;;;;;11.11;100.00;100526.47;6335858;22;20313;-82
2022/10/11 06:51:36;;;;;;;0.38;0.38;;;;;;;11.28;100.00;100524.53;6337164;22;20014;-82
2022/10/11 06:54:02;;;;;;;4.15;2.10;;;;;;;11.41;100.00;100527.41;6309271;22;20019;-82
2022/10/11 06:56:29;;;;;;;1.20;1.10;;;;;;;11.51;100.00;100531.97;6335642;22;20010;-82
2022/10/11 06:58:55;;;;;;;0.32;0.32;;;;;;;11.72;100.00;100525.16;6308666;22;20011;-82
2022/10/11 07:01:22;;;;;;;0.63;0.63;;;;;;;11.91;100.00;100522.28;6309294;22;20021;-82
2022/10/11 07:03:52;;;;;;;0.45;0.45;;;;;;;12.29;100.00;100516.19;6336708;22;19999;-82
2022/10/11 07:06:22;;;;;;;0.98;0.95;;;;;;;12.51;100.00;100517.19;6334726;22;20380;-82
2022/10/11 07:08:47;;;;;;;1.35;1.17;;;;;;;12.66;100.00;100523.16;6309117;22;20018;-82
2022/10/11 07:11:16;;;;;;;0.68;0.68;;;;;;;12.84;100.00;100520.66;6308634;22;20050;-82
2022/10/11 07:13:42;;;;;;;1.45;1.35;;;;;;;12.98;100.00;100515.44;6334878;22;20056;-82
2022/10/11 07:16:10;;;;;;;4.28;2.75;;;;;;;13.09;100.00;100520.72;6334429;22;20015;-82
2022/10/11 07:18:35;;;;;;;0.90;0.90;;;;;;;13.27;100.00;100520.22;6308523;22;20015;-82
2022/10/11 07:21:03;;;;;;;2.50;1.55;;;;;;;13.49;100.00;100521.13;6336431;22;20443;-82
2022/10/11 07:23:28;;;;;;;0.63;0.63;;;;;;;13.75;100.00;100522.69;6334673;22;20106;-82
2022/10/11 07:25:54;;;;;;;0.65;0.65;;;;;;;13.98;100.00;100527.91;6334429;22;20022;-82
2022/10/11 07:28:20;;;;;;;0.20;0.20;;;;;;;14.25;100.00;100543.38;6307491;22;20023;-82
2022/10/11 07:30:46;;;;;;;1.55;1.45;;;;;;;14.45;100.00;100541.13;6334949;22;20336;-82
2022/10/11 07:33:12;;;;;;;1.65;1.55;;;;;;;14.46;100.00;100531.50;6333938;22;20007;-80
2022/10/11 07:35:38;;;;;;;7.38;2.28;;;;;;;14.70;100.00;100541.03;6335251;22;20331;-81
2022/10/11 07:38:04;;;;;;;1.35;1.15;;;;;;;14.96;100.00;100540.91;6334459;22;20003;-81
2022/10/11 07:40:30;;;;;;;1.00;0.82;;;;;;;15.14;100.00;100529.84;6334152;22;20068;-81
2022/10/11 07:42:57;;;;;;;1.85;1.23;;;;;;;15.27;100.00;100544.53;6308840;22;19990;-81
2022/10/11 07:45:24;;;;;;;0.80;0.45;;;;;;;15.51;100.00;100540.03;6335129;22;20068;-81
2022/10/11 07:47:49;;;;;;;2.03;1.88;;;;;;;15.57;100.00;100534.63;6334997;22;20006;-93
2022/10/11 07:50:15;;;;;;;0.63;0.63;;;;;;;15.77;100.00;100543.41;6334837;22;20011;-91
2022/10/11 07:52:40;;;;;;;0.90;0.65;;;;;;;15.85;100.00;100545.44;6334696;22;20099;-91
2022/10/11 07:55:06;;;;;;;6.78;1.52;;;;;;;15.88;100.00;100548.56;6334216;22;20094;-92
2022/10/11 07:57:32;;;;;;;1.55;1.13;;;;;;;16.04;100.00;100546.28;6337222;22;19998;-91
2022/10/11 07:59:57;;;;;;;1.77;1.65;;;;;;;15.88;100.00;100542.97;6334294;22;20011;-92
2022/10/11 08:02:23;;;;;;;1.95;1.35;;;;;;;16.05;100.00;100542.25;6308652;22;20021;-93
2022/10/11 08:04:48;;;;;;;0.98;0.68;;;;;;;16.45;100.00;100553.38;6336298;22;20018;-81
2022/10/11 08:07:13;;;;;;;2.45;1.65;;;;;;;16.78;100.00;100557.16;6336031;22;20081;-91
2022/10/11 08:09:39;;;;;;;2.92;1.40;;;;;;;16.79;100.00;100555.91;6334246;22;20005;-90
2022/10/11 08:12:05;;;;;;;1.73;1.63;;;;;;;16.65;100.00;100545.34;6335552;22;20011;-91
2022/10/11 08:14:30;;;;;;;1.48;1.38;;;;;;;16.61;100.00;100550.31;6336467;22;20014;-92
2022/10/11 08:16:56;;;;;;;1.33;1.15;;;;;;;16.39;100.00;100555.22;6336537;22;20037;-91
2022/10/11 08:19:21;;;;;;;2.53;1.65;;;;;;;16.60;100.00;100551.56;6308054;22;20372;-89
2022/10/11 08:21:47;;;;;;;2.30;0.93;;;;;;;16.94;100.00;100544.88;6308287;22;20052;-91
2022/10/11 08:24:12;;;;;;;0.85;0.82;;;;;;;17.43;100.00;100541.78;6334312;22;20093;-92
2022/10/11 08:26:38;;;;;;;4.22;1.27;;;;;;;17.80;100.00;100541.66;6308077;22;20381;-91
2022/10/11 08:29:04;;;;;;;0.73;0.65;;;;;;;17.89;97.18;100544.44;6334275;22;20007;-90
2022/10/11 08:31:30;;;;;;;3.42;2.42;;;;;;;17.63;97.66;100547.66;6334712;22;20085;-90
2022/10/11 08:33:56;;;;;;;0.90;0.80;;;;;;;17.45;100.00;100544.91;6334436;22;19999;-92
2022/10/11 08:36:21;;;;;;;0.90;0.77;;;;;;;17.60;98.02;100557.03;6335934;22;20451;-90
2022/10/11 08:38:47;;;;;;;2.90;2.40;;;;;;;17.50;97.87;100547.06;6334390;22;20007;-92
2022/10/11 08:41:34;;;;;;;1.80;1.13;;;;;;;17.74;98.35;100552.00;6335759;22;20014;-91
2022/10/11 08:44:07;;;;;;;0.80;0.73;;;;;;;17.84;97.54;100547.91;6333303;22;20097;-91
2022/10/11 08:46:34;;;;;;;;;;;;;;;18.15;96.14;100551.19;6334583;22;20089;-91
2022/10/11 08:49:01;;;;;;;0.70;0.70;;;;;;;18.33;95.85;100551.06;6308396;22;19906;-92
2022/10/11 08:51:30;;;;;;;1.95;1.13;;;;;;;18.42;94.42;100547.41;6283100;22;20011;-91
2022/10/11 08:54:24;;;;;;;4.60;1.65;;;;;;;18.49;94.12;100542.22;6334519;22;20086;-92
2022/10/11 08:56:49;;;;;;;6.40;1.88;;;;;;;18.53;93.59;100542.84;6332677;22;20338;-91
2022/10/11 08:59:38;;;;;;;1.70;1.25;;;;;;;18.64;93.12;100545.84;6333459;22;20450;-91
2022/10/11 09:02:14;;;;;;;3.03;1.33;;;;;;;18.77;92.98;100547.63;6336024;22;20019;-81
2022/10/11 09:04:40;;;;;;;2.70;1.90;;;;;;;18.89;92.74;100546.59;6336458;22;20022;-91
2022/10/11 09:07:39;;;;;;;1.85;1.58;;;;;;;19.12;89.45;100547.81;6334118;22;20002;-92
2022/10/11 09:10:25;;;;;;;3.78;1.60;;;;;;;19.08;89.71;100545.19;6335145;22;20440;-90
2022/10/11 09:13:17;;;;;;;1.88;1.42;;;;;;;19.01;90.23;100548.34;6338240;22;20077;-90
2022/10/11 09:15:57;;;;;;;2.05;1.73;;;;;;;18.94;89.40;100549.53;6337549;22;20348;-92
2022/10/11 09:18:47;;;;;;;1.95;1.55;;;;;;;18.56;91.77;100547.47;6337046;22;20011;-92
2022/10/11 09:21:20;;;;;;;1.65;1.08;;;;;;;18.57;93.53;100546.22;6336101;22;20089;-91
2022/10/11 09:24:03;;;;;;;2.88;1.48;;;;;;;18.64;91.68;100550.72;6337355;22;20056;-81
2022/10/11 09:26:47;;;;;;;1.17;1.10;;;;;;;18.80;91.86;100546.69;6337494;22;20029;-81
2022/10/11 09:29:50;;;;;;;1.13;1.08;;;;;;;18.75;92.24;100548.13;6336894;22;20029;-81
2022/10/11 09:32:21;;;;;;;1.48;1.38;;;;;;;18.53;93.35;100556.88;6276465;22;20018;-82
2022/10/11 09:34:56;;;;;;;3.47;2.00;;;;;;;18.41;94.93;100545.84;6335782;22;20013;-81
2022/10/11 09:37:40;;;;;;;4.85;4.28;;;;;;;18.56;94.63;100555.16;6335262;22;20019;-81
2022/10/11 09:40:09;;;;;;;2.33;1.60;;;;;;;18.44;95.94;100556.91;6335280;22;20014;-81
2022/10/11 09:42:35;;;;;;;1.02;0.98;;;;;;;18.48;94.35;100549.06;6337446;22;20041;-91
2022/10/11 09:45:01;;;;;;;1.70;1.60;;;;;;;18.51;95.03;100552.97;6283515;22;20011;-91
2022/10/11 09:47:28;;;;;;;1.85;1.17;;;;;;;18.73;93.77;100552.66;6335328;22;20014;-91
2022/10/11 09:50:01;;;;;;;2.05;1.80;;;;;;;18.96;92.31;100547.00;6283523;22;20015;-91
2022/10/11 09:52:27;;;;;;;1.45;1.13;;;;;;;19.25;91.82;100551.13;6309267;22;20352;-90
2022/10/11 09:54:58;;;;;;;1.35;0.98;;;;;;;19.69;88.66;100546.25;6335514;22;19994;-91
2022/10/11 09:57:41;;;;;;;1.80;1.67;;;;;;;19.91;88.32;100543.00;6335360;22;20403;-90
2022/10/11 10:00:07;;;;;;;1.10;1.00;;;;;;;19.90;88.87;100544.25;6309537;22;20076;-81
2022/10/11 10:02:45;;;;;;;3.47;2.10;;;;;;;19.92;88.17;100538.94;6337472;22;19995;-81
2022/10/11 10:05:13;;;;;;;0.97;0.97;;;;;;;19.91;86.52;100548.63;6334549;22;20034;-81
2022/10/11 10:07:42;;;;;;;2.00;1.60;;;;;;;19.15;89.93;100552.44;6335796;22;20253;-81
2022/10/11 10:10:30;;;;;;;1.98;1.63;;;;;;;19.42;89.58;100552.16;6309418;22;20018;-81
2022/10/11 10:12:58;;;;;;;1.73;1.58;;;;;;;19.45;90.16;100548.44;6335508;22;20019;-81
2022/10/11 10:15:30;;;;;;;2.72;1.75;;;;;;;19.50;89.25;100553.34;6335029;22;20098;-81
2022/10/11 10:17:56;;;;;;;2.42;1.30;;;;;;;19.93;87.90;100548.94;6283334;22;20344;-81
2022/10/11 10:20:28;;;;;;;1.83;1.65;;;;;;;20.34;86.32;100542.09;6335229;22;19999;-81
2022/10/11 10:22:54;;;;;;;4.93;1.88;;;;;;;20.06;85.65;100552.19;6335519;22;20048;-81
2022/10/11 10:25:33;;;;;;;0.88;0.88;;;;;;;20.20;85.27;100544.97;6309172;22;20042;-81
2022/10/11 10:28:01;;;;;;;1.88;1.00;;;;;;;20.33;86.34;100548.25;6335684;22;20010;-81
2022/10/11 10:30:28;;;;;;;2.00;1.40;;;;;;;20.29;84.89;100548.44;6336268;22;20105;-81
2022/10/11 10:33:04;;;;;;;1.42;1.30;;;;;;;20.32;83.78;100552.31;6309150;22;20014;-81
2022/10/11 10:35:52;;;;;;;28.10;2.17;;;;;;;20.23;83.83;100555.22;6309553;22;20381;-81
2022/10/11 10:38:26;;;;;;;3.45;1.50;;;;;;;20.59;85.57;100553.94;6335402;22;20014;-81
2022/10/11 10:40:54;;;;;;;4.22;1.92;;;;;;;20.80;82.82;100547.03;6309228;22;20356;-81
2022/10/11 10:43:28;;;;;;;2.75;1.92;;;;;;;20.85;81.02;100543.50;6335387;22;19999;-81
2022/10/11 10:46:21;;;;;;;2.03;1.77;;;;;;;20.81;81.31;100551.41;6334402;22;20006;-81
2022/10/11 10:49:11;;;;;;;0.95;0.85;;;;;;;21.11;81.88;100555.56;6336284;22;20030;-81
2022/10/11 10:51:42;;;;;;;1.50;1.00;;;;;;;21.15;80.99;100558.97;6336812;22;20448;-81
2022/10/11 10:54:28;;;;;;;2.60;1.73;;;;;;;21.16;80.88;100546.41;6333744;22;20015;-81
2022/10/11 10:57:10;;;;;;;1.08;1.05;;;;;;;21.14;81.00;100546.16;6332285;22;20097;-81
2022/10/11 10:59:44;;;;;;;0.90;0.90;;;;;;;21.06;79.92;100532.94;6308864;22;20021;-81
2022/10/11 11:02:28;;;;;;;1.50;1.38;;;;;;;21.10;79.80;100544.78;6309116;22;20038;-81
2022/10/11 11:05:25;;;;;;;3.92;2.05;;;;;;;21.21;77.06;100536.47;6310166;22;20060;-81
2022/10/11 11:07:52;;;;;;;4.90;2.30;;;;;;;21.24;78.85;100543.91;6335141;22;20053;-81
2022/10/11 11:10:19;;;;;;;3.55;2.15;;;;;;;21.24;78.70;100541.88;6308987;22;20011;-81
2022/10/11 11:13:03;;;;;;;2.58;1.83;;;;;;;21.05;80.12;100540.63;6334509;22;20011;-81
2022/10/11 11:15:39;;;;;;;1.40;1.30;;;;;;;21.29;78.74;100537.56;6336132;22;20361;-91
2022/10/11 11:18:45;;;;;;;2.85;2.53;;;;;;;21.56;76.99;100525.72;6334237;22;20007;-81
2022/10/11 11:21:34;;;;;;;1.50;1.40;;;;;;;21.65;76.72;100525.53;6307320;22;20139;-82
2022/10/11 11:24:20;;;;;;;1.30;1.20;;;;;;;21.59;77.10;100526.78;6334982;22;20024;-81
2022/10/11 11:27:00;;;;;;;1.70;1.35;;;;;;;21.90;77.31;100509.81;6335579;22;20395;-81
2022/10/11 11:29:39;;;;;;;3.00;1.20;;;;;;;21.70;76.08;100524.03;6306933;22;20029;-81
2022/10/11 11:32:45;;;;;;;3.85;1.67;;;;;;;21.81;76.48;100512.81;6336427;22;20007;-81
2022/10/11 11:35:23;;;;;;;0.73;0.70;;;;;;;22.15;75.38;100531.56;6335042;22;20022;-81
2022/10/11 11:37:50;;;;;;;3.25;2.17;;;;;;;21.89;75.40;100516.72;6336596;22;20010;-81
2022/10/11 11:40:37;;;;;;;1.33;0.80;;;;;;;22.23;73.34;100532.63;6333911;22;20027;-81
2022/10/11 11:43:27;;;;;;;0.88;0.82;;;;;;;22.02;73.97;100510.66;6307987;22;20014;-81